New Orleans NAS, Louisiana
Current Conditions -  °F | °C
As of 9:55 PM on Monday 22 Dec 2014 (Local Time) from KNBG Reporting Station
Haze Haze  
Wind Chill: 20°   Ceiling: 1000
Heat Index: 20°   Visibility: 5mi
Dew Point: 19°   Wind: 9mph
Humidity: 93%   Direction: 200°SSW
Pressure: 29.74"   Gusts: NA
Location:  29.83°N, 90.02°W
Report Text: KNBG 230355Z 20008KT 5SM BR BKN010 BKN024 BKN030 20/19 A2974 RMK AO2 SLP071 T02000189 $
Loading
Personal Weather Stations






























Interactive Weather Map New forecast layout! Learn more

10-Day Weather Forecast

Advertisements
Track Severe Weather on mobile